KMPZ/MPZ METAR and TAF weather

Enter ICAO airport designator
Station Type Date Time Source
KMPZ METAR 2018/12/12 11:35 UTC NOAA

KMPZ 121135Z AUTO 27013G18KT 10SM CLR 00/M02 A2978 RMK AO2


Station Type Date Time Source
KMPZ Decoded METAR 2018/12/12 11:35 UTC NOAA

Mount Pleasant, Mount Pleasant Municipal Airport, IA, United States (KMPZ) 40-56-48N 091-30-40W
Dec 12, 2018 - 06:35 AM EST / 2018.12.12 1135 UTC
Wind: from the W (270 degrees) at 15 MPH (13 KT) gusting to 21 MPH (18 KT):0
Visibility: 10 mile(s):0
Sky conditions: clear
Temperature: 32 F (0 C)
Windchill: 21 F (-6 C):1
Dew Point: 28 F (-2 C)
Relative Humidity: 86%
Pressure (altimeter): 29.78 in. Hg (1008 hPa)
ob: KMPZ 121135Z AUTO 27013G18KT 10SM CLR 00/M02 A2978 RMK AO2
cycle: 11

Station Type Date Time Source
KMPZ TAF UTC NOAA

Error!


Example: see airport list